Ford Heights, Illinois
Current Conditions -  °F | °C
As of 9:35 AM on Friday 28 Nov 2014 (Local Time) from KIGQ Reporting Station
Clear Clear  
Wind Chill: 11°   Ceiling: Unl
Heat Index: 24°   Visibility: 10mi
Dew Point: 16°   Wind: 15mph
Humidity: 73%   Direction: 180°S
Pressure: 30.27"   Gusts: NA
Location:  41.5054°N, 87.5907°W
Report Text: KIGQ 281535Z AUTO 18013KT 10SM CLR M05/M09 A3027 RMK AO2 T10461087
Loading
Personal Weather Stations






























Interactive Weather Map New forecast layout! Learn more

10-Day Weather Forecast

Advertisements
Track Severe Weather on mobile